Country
Station

 

Weather  for  Vlieland  -  Netherlands    Netherlands

  
18 °C (64 °F)
    
 
 

Current METAR for Vlieland is :

EHVL 211155Z AUTO 35004KT 310V010 9999 NCD 18/13 Q1017 BLU

 

This is a report for Vlieland - Netherlands.
 
The report was made 32 minutes ago, at 11:55 UTC .
The wind was blowing at a speed of 2.1 meters per second (4.6 miles per hour) from north (350°), varying between northwest (310°) and north (010°).
 
The temperature was 18 °C (64 °F), with a dew-point at 13 °C (55 °F).
The atmospheric pressure was 1017 hPa (30.03 inHg).
The relative humidity was 72.6%.
 
The overall visibility was greater than 10 kilometers (6.2 miles).
 

 
 
 
 

Country :   A   B   C   D   E   F   G   H   I   J   K   L   M   N   O   P   Q   R   S   T   U   V   W   Y   Z

 

Site Info  |  Disclaimer  |  Credits  |  Privacy
Contact us  |  Add to favorites
© 2013-2020 METARs - All rights reserved